sensor_id;sensor_type;location;lat;lon;timestamp;pressure;altitude;pressure_sealevel;temperature;humidity
60918;BME280;46792;38.854;-9.384;2023-02-11T00:00:19;100483.50;;;9.07;60.22
60918;BME280;46792;38.854;-9.384;2023-02-11T00:02:19;100490.78;;;9.07;60.07
60918;BME280;46792;38.854;-9.384;2023-02-11T00:04:20;100485.84;;;9.04;60.21
60918;BME280;46792;38.854;-9.384;2023-02-11T00:06:21;100485.16;;;9.08;59.96
60918;BME280;46792;38.854;-9.384;2023-02-11T00:08:21;100485.66;;;9.05;60.15
60918;BME280;46792;38.854;-9.384;2023-02-11T00:10:40;100482.81;;;9.00;60.57
60918;BME280;46792;38.854;-9.384;2023-02-11T00:12:41;100491.34;;;8.97;60.56
60918;BME280;46792;38.854;-9.384;2023-02-11T00:14:42;100487.16;;;9.01;60.58
60918;BME280;46792;38.854;-9.384;2023-02-11T00:16:43;100485.97;;;8.97;60.78
60918;BME280;46792;38.854;-9.384;2023-02-11T00:18:43;100482.66;;;8.95;60.70
60918;BME280;46792;38.854;-9.384;2023-02-11T00:20:44;100479.38;;;8.93;60.97
60918;BME280;46792;38.854;-9.384;2023-02-11T00:22:45;100472.63;;;8.72;61.56
60918;BME280;46792;38.854;-9.384;2023-02-11T00:24:45;100469.94;;;8.72;61.89
60918;BME280;46792;38.854;-9.384;2023-02-11T00:26:46;100475.78;;;8.68;61.75
60918;BME280;46792;38.854;-9.384;2023-02-11T00:28:48;100472.63;;;8.72;62.00
60918;BME280;46792;38.854;-9.384;2023-02-11T00:30:56;100470.19;;;8.70;61.75
60918;BME280;46792;38.854;-9.384;2023-02-11T00:32:57;100454.94;;;8.64;61.96
60918;BME280;46792;38.854;-9.384;2023-02-11T00:34:59;100454.50;;;8.67;62.06
60918;BME280;46792;38.854;-9.384;2023-02-11T00:36:59;100453.28;;;8.63;62.08
60918;BME280;46792;38.854;-9.384;2023-02-11T00:39:00;100441.72;;;8.62;62.31
60918;BME280;46792;38.854;-9.384;2023-02-11T00:41:01;100447.72;;;8.64;61.78
60918;BME280;46792;38.854;-9.384;2023-02-11T00:43:02;100448.38;;;8.60;62.57
60918;BME280;46792;38.854;-9.384;2023-02-11T00:45:03;100435.97;;;8.59;62.59
60918;BME280;46792;38.854;-9.384;2023-02-11T00:47:04;100434.41;;;8.51;62.86
60918;BME280;46792;38.854;-9.384;2023-02-11T00:49:04;100434.47;;;8.44;62.85
60918;BME280;46792;38.854;-9.384;2023-02-11T00:51:06;100427.84;;;8.47;62.92
60918;BME280;46792;38.854;-9.384;2023-02-11T00:53:07;100432.38;;;8.46;63.23
60918;BME280;46792;38.854;-9.384;2023-02-11T00:55:26;100427.00;;;8.46;63.16
60918;BME280;46792;38.854;-9.384;2023-02-11T00:57:48;100423.34;;;8.41;63.33
60918;BME280;46792;38.854;-9.384;2023-02-11T00:59:50;100421.09;;;8.37;63.50
60918;BME280;46792;38.854;-9.384;2023-02-11T01:01:50;100410.13;;;8.39;63.54
60918;BME280;46792;38.854;-9.384;2023-02-11T01:03:51;100406.41;;;8.40;63.40
60918;BME280;46792;38.854;-9.384;2023-02-11T01:05:52;100408.78;;;8.30;63.93
60918;BME280;46792;38.854;-9.384;2023-02-11T01:07:52;100408.44;;;8.26;64.22
60918;BME280;46792;38.854;-9.384;2023-02-11T01:09:53;100406.63;;;8.20;64.40
60918;BME280;46792;38.854;-9.384;2023-02-11T01:11:53;100401.66;;;8.24;64.32
60918;BME280;46792;38.854;-9.384;2023-02-11T01:13:54;100402.69;;;8.22;64.13
60918;BME280;46792;38.854;-9.384;2023-02-11T01:15:56;100399.78;;;8.24;64.42
60918;BME280;46792;38.854;-9.384;2023-02-11T01:18:15;100395.88;;;8.20;64.65
60918;BME280;46792;38.854;-9.384;2023-02-11T01:20:23;100388.41;;;8.22;64.59
60918;BME280;46792;38.854;-9.384;2023-02-11T01:22:42;100394.19;;;8.26;64.69
60918;BME280;46792;38.854;-9.384;2023-02-11T01:24:42;100387.25;;;8.18;64.78
60918;BME280;46792;38.854;-9.384;2023-02-11T01:27:02;100383.88;;;8.22;64.88
60918;BME280;46792;38.854;-9.384;2023-02-11T01:29:03;100386.41;;;8.17;64.71
60918;BME280;46792;38.854;-9.384;2023-02-11T01:31:03;100388.75;;;8.14;64.91
60918;BME280;46792;38.854;-9.384;2023-02-11T01:33:22;100392.31;;;8.07;65.28
60918;BME280;46792;38.854;-9.384;2023-02-11T01:35:23;100384.84;;;8.10;65.43
60918;BME280;46792;38.854;-9.384;2023-02-11T01:37:24;100382.25;;;8.03;66.07
60918;BME280;46792;38.854;-9.384;2023-02-11T01:39:26;100386.50;;;8.11;65.60
60918;BME280;46792;38.854;-9.384;2023-02-11T01:41:26;100378.19;;;8.12;65.75
60918;BME280;46792;38.854;-9.384;2023-02-11T01:46:22;100376.53;;;8.11;65.66
60918;BME280;46792;38.854;-9.384;2023-02-11T01:48:58;100379.84;;;8.13;65.60
60918;BME280;46792;38.854;-9.384;2023-02-11T01:51:08;100374.94;;;8.10;65.78
60918;BME280;46792;38.854;-9.384;2023-02-11T01:53:10;100380.44;;;7.97;66.08
60918;BME280;46792;38.854;-9.384;2023-02-11T01:55:30;100368.81;;;8.03;65.96
60918;BME280;46792;38.854;-9.384;2023-02-11T01:57:52;100371.78;;;7.95;66.19
60918;BME280;46792;38.854;-9.384;2023-02-11T02:02:16;100368.66;;;7.98;66.45
60918;BME280;46792;38.854;-9.384;2023-02-11T02:04:20;100369.34;;;7.93;66.23
60918;BME280;46792;38.854;-9.384;2023-02-11T02:06:52;100362.59;;;8.02;66.48
60918;BME280;46792;38.854;-9.384;2023-02-11T02:09:13;100366.41;;;7.95;66.60
60918;BME280;46792;38.854;-9.384;2023-02-11T02:11:15;100359.78;;;7.97;66.58
60918;BME280;46792;38.854;-9.384;2023-02-11T02:13:16;100352.41;;;7.93;66.78
60918;BME280;46792;38.854;-9.384;2023-02-11T02:15:29;100353.66;;;7.90;66.91
60918;BME280;46792;38.854;-9.384;2023-02-11T02:17:37;100356.50;;;7.95;66.85
60918;BME280;46792;38.854;-9.384;2023-02-11T02:25:18;100349.31;;;7.89;66.82
60918;BME280;46792;38.854;-9.384;2023-02-11T02:27:54;100348.19;;;7.97;66.79
60918;BME280;46792;38.854;-9.384;2023-02-11T02:39:44;100340.00;;;7.91;66.38
60918;BME280;46792;38.854;-9.384;2023-02-11T02:41:47;100353.75;;;7.83;66.67
60918;BME280;46792;38.854;-9.384;2023-02-11T02:43:50;100340.28;;;7.83;66.80
60918;BME280;46792;38.854;-9.384;2023-02-11T02:45:51;100338.97;;;7.74;67.22
60918;BME280;46792;38.854;-9.384;2023-02-11T02:48:28;100338.22;;;7.67;67.36
60918;BME280;46792;38.854;-9.384;2023-02-11T02:50:48;100325.47;;;7.62;67.64
60918;BME280;46792;38.854;-9.384;2023-02-11T02:53:17;100330.16;;;7.67;67.48
60918;BME280;46792;38.854;-9.384;2023-02-11T03:02:15;100316.13;;;7.65;67.55
60918;BME280;46792;38.854;-9.384;2023-02-11T03:09:15;100301.97;;;7.39;68.55
60918;BME280;46792;38.854;-9.384;2023-02-11T03:11:19;100295.31;;;7.41;68.72
60918;BME280;46792;38.854;-9.384;2023-02-11T03:13:42;100298.69;;;7.37;68.32
60918;BME280;46792;38.854;-9.384;2023-02-11T03:15:48;100291.22;;;7.39;68.30
60918;BME280;46792;38.854;-9.384;2023-02-11T03:17:57;100289.41;;;7.33;68.45
60918;BME280;46792;38.854;-9.384;2023-02-11T03:20:03;100293.03;;;7.45;68.35
60918;BME280;46792;38.854;-9.384;2023-02-11T03:22:17;100296.75;;;7.44;67.98
60918;BME280;46792;38.854;-9.384;2023-02-11T03:24:30;100280.75;;;7.30;69.00
60918;BME280;46792;38.854;-9.384;2023-02-11T03:26:35;100280.31;;;7.34;68.99
60918;BME280;46792;38.854;-9.384;2023-02-11T03:30:46;100280.41;;;7.27;69.30
60918;BME280;46792;38.854;-9.384;2023-02-11T03:32:52;100273.25;;;7.21;69.44
60918;BME280;46792;38.854;-9.384;2023-02-11T03:34:58;100272.66;;;7.19;69.43
60918;BME280;46792;38.854;-9.384;2023-02-11T03:37:11;100272.06;;;7.17;69.18
60918;BME280;46792;38.854;-9.384;2023-02-11T03:39:18;100268.31;;;7.18;69.63
60918;BME280;46792;38.854;-9.384;2023-02-11T03:41:41;100267.47;;;7.17;69.41
60918;BME280;46792;38.854;-9.384;2023-02-11T03:43:49;100259.44;;;7.17;69.67
60918;BME280;46792;38.854;-9.384;2023-02-11T03:45:52;100260.19;;;7.24;69.25
60918;BME280;46792;38.854;-9.384;2023-02-11T03:48:00;100250.13;;;7.20;69.40
60918;BME280;46792;38.854;-9.384;2023-02-11T03:50:05;100250.13;;;7.20;69.46
60918;BME280;46792;38.854;-9.384;2023-02-11T03:52:07;100248.84;;;7.22;69.03
60918;BME280;46792;38.854;-9.384;2023-02-11T03:54:29;100235.94;;;7.12;69.32
60918;BME280;46792;38.854;-9.384;2023-02-11T03:56:37;100240.19;;;7.20;68.71
60918;BME280;46792;38.854;-9.384;2023-02-11T03:58:39;100235.50;;;7.15;69.07
60918;BME280;46792;38.854;-9.384;2023-02-11T04:00:41;100236.69;;;7.20;68.81
60918;BME280;46792;38.854;-9.384;2023-02-11T04:02:51;100243.31;;;7.17;68.81
60918;BME280;46792;38.854;-9.384;2023-02-11T04:04:51;100240.63;;;7.17;69.04
60918;BME280;46792;38.854;-9.384;2023-02-11T04:06:52;100240.13;;;7.27;68.64
60918;BME280;46792;38.854;-9.384;2023-02-11T04:08:53;100237.22;;;7.28;68.17
60918;BME280;46792;38.854;-9.384;2023-02-11T04:10:53;100237.75;;;7.19;68.30
60918;BME280;46792;38.854;-9.384;2023-02-11T04:12:54;100224.34;;;7.30;68.20
60918;BME280;46792;38.854;-9.384;2023-02-11T04:14:56;100216.34;;;7.12;68.49
60918;BME280;46792;38.854;-9.384;2023-02-11T04:16:57;100223.28;;;7.20;68.52
60918;BME280;46792;38.854;-9.384;2023-02-11T04:18:57;100221.41;;;7.20;68.04
60918;BME280;46792;38.854;-9.384;2023-02-11T04:20:58;100216.03;;;7.20;67.82
60918;BME280;46792;38.854;-9.384;2023-02-11T04:22:59;100208.66;;;7.15;67.76
60918;BME280;46792;38.854;-9.384;2023-02-11T04:24:59;100204.47;;;7.01;67.95
60918;BME280;46792;38.854;-9.384;2023-02-11T04:27:00;100207.69;;;7.10;67.73
60918;BME280;46792;38.854;-9.384;2023-02-11T04:29:19;100203.66;;;7.00;67.58
60918;BME280;46792;38.854;-9.384;2023-02-11T04:31:20;100216.25;;;7.00;67.92
60918;BME280;46792;38.854;-9.384;2023-02-11T04:33:21;100201.44;;;6.97;67.26
60918;BME280;46792;38.854;-9.384;2023-02-11T04:35:24;100205.00;;;7.10;67.28
60918;BME280;46792;38.854;-9.384;2023-02-11T04:37:25;100200.69;;;7.09;67.26
60918;BME280;46792;38.854;-9.384;2023-02-11T04:39:25;100198.50;;;6.99;67.45
60918;BME280;46792;38.854;-9.384;2023-02-11T04:41:26;100194.63;;;7.13;66.95
60918;BME280;46792;38.854;-9.384;2023-02-11T04:43:26;100189.19;;;7.02;67.40
60918;BME280;46792;38.854;-9.384;2023-02-11T04:45:27;100195.59;;;7.00;67.63
60918;BME280;46792;38.854;-9.384;2023-02-11T04:47:27;100199.19;;;6.94;67.55
60918;BME280;46792;38.854;-9.384;2023-02-11T04:49:28;100183.97;;;6.88;67.37
60918;BME280;46792;38.854;-9.384;2023-02-11T04:51:47;100191.81;;;6.90;67.98
60918;BME280;46792;38.854;-9.384;2023-02-11T04:53:50;100191.13;;;6.94;67.62
60918;BME280;46792;38.854;-9.384;2023-02-11T04:55:51;100184.25;;;6.98;67.63
60918;BME280;46792;38.854;-9.384;2023-02-11T04:58:12;100189.13;;;6.90;67.67
60918;BME280;46792;38.854;-9.384;2023-02-11T05:00:13;100189.19;;;6.83;67.75
60918;BME280;46792;38.854;-9.384;2023-02-11T05:02:14;100189.94;;;6.90;67.82
60918;BME280;46792;38.854;-9.384;2023-02-11T05:04:15;100175.31;;;6.86;67.54
60918;BME280;46792;38.854;-9.384;2023-02-11T05:06:17;100173.69;;;6.85;67.92
60918;BME280;46792;38.854;-9.384;2023-02-11T05:08:17;100173.03;;;6.90;67.71
60918;BME280;46792;38.854;-9.384;2023-02-11T05:10:18;100174.13;;;6.82;67.87
60918;BME280;46792;38.854;-9.384;2023-02-11T05:12:19;100171.22;;;6.83;67.65
60918;BME280;46792;38.854;-9.384;2023-02-11T05:14:19;100175.72;;;6.90;67.90
60918;BME280;46792;38.854;-9.384;2023-02-11T05:16:20;100176.16;;;6.87;67.68
60918;BME280;46792;38.854;-9.384;2023-02-11T05:18:21;100167.34;;;6.79;68.12
60918;BME280;46792;38.854;-9.384;2023-02-11T05:20:41;100173.03;;;6.90;67.71
60918;BME280;46792;38.854;-9.384;2023-02-11T05:22:42;100166.75;;;6.96;67.47
60918;BME280;46792;38.854;-9.384;2023-02-11T05:24:45;100166.22;;;6.87;67.30
60918;BME280;46792;38.854;-9.384;2023-02-11T05:26:46;100166.22;;;6.87;67.61
60918;BME280;46792;38.854;-9.384;2023-02-11T05:28:46;100159.81;;;6.88;67.31
60918;BME280;46792;38.854;-9.384;2023-02-11T05:30:47;100163.53;;;6.87;67.45
60918;BME280;46792;38.854;-9.384;2023-02-11T05:32:48;100152.13;;;6.92;67.12
60918;BME280;46792;38.854;-9.384;2023-02-11T05:34:48;100155.31;;;6.82;67.12
60918;BME280;46792;38.854;-9.384;2023-02-11T05:36:49;100145.88;;;6.79;67.21
60918;BME280;46792;38.854;-9.384;2023-02-11T05:38:49;100156.41;;;6.81;67.14
60918;BME280;46792;38.854;-9.384;2023-02-11T05:40:50;100152.28;;;6.78;67.00
60918;BME280;46792;38.854;-9.384;2023-02-11T05:42:51;100161.38;;;6.77;67.17
60918;BME280;46792;38.854;-9.384;2023-02-11T05:44:51;100147.16;;;6.77;67.55
60918;BME280;46792;38.854;-9.384;2023-02-11T05:46:52;100148.28;;;6.69;67.57
60918;BME280;46792;38.854;-9.384;2023-02-11T05:48:52;100143.34;;;6.84;67.16
60918;BME280;46792;38.854;-9.384;2023-02-11T05:51:12;100142.38;;;6.79;67.38
60918;BME280;46792;38.854;-9.384;2023-02-11T05:53:12;100146.19;;;6.71;67.45
60918;BME280;46792;38.854;-9.384;2023-02-11T05:55:13;100144.63;;;6.63;67.73
60918;BME280;46792;38.854;-9.384;2023-02-11T05:57:14;100143.78;;;6.63;67.65
60918;BME280;46792;38.854;-9.384;2023-02-11T05:59:15;100149.16;;;6.63;67.47
60918;BME280;46792;38.854;-9.384;2023-02-11T06:01:35;100148.28;;;6.69;67.46
60918;BME280;46792;38.854;-9.384;2023-02-11T06:03:53;100148.53;;;6.61;67.21
60918;BME280;46792;38.854;-9.384;2023-02-11T06:05:54;100131.28;;;6.57;67.41
60918;BME280;46792;38.854;-9.384;2023-02-11T06:07:55;100139.69;;;6.60;67.46
60918;BME280;46792;38.854;-9.384;2023-02-11T06:09:55;100140.50;;;6.61;67.46
60918;BME280;46792;38.854;-9.384;2023-02-11T06:12:22;100132.44;;;6.61;67.37
60918;BME280;46792;38.854;-9.384;2023-02-11T06:14:23;100147.75;;;6.60;67.46
60918;BME280;46792;38.854;-9.384;2023-02-11T06:16:23;100146.38;;;6.69;67.57
60918;BME280;46792;38.854;-9.384;2023-02-11T06:20:52;100131.19;;;6.63;67.73
60918;BME280;46792;38.854;-9.384;2023-02-11T06:22:52;100149.22;;;6.56;67.63
60918;BME280;46792;38.854;-9.384;2023-02-11T06:24:53;100135.44;;;6.52;67.35
60918;BME280;46792;38.854;-9.384;2023-02-11T06:26:54;100137.59;;;6.62;67.23
60918;BME280;46792;38.854;-9.384;2023-02-11T06:28:54;100137.88;;;6.54;67.38
60918;BME280;46792;38.854;-9.384;2023-02-11T06:30:55;100121.94;;;6.59;67.10
60918;BME280;46792;38.854;-9.384;2023-02-11T06:32:55;100140.41;;;6.67;66.72
60918;BME280;46792;38.854;-9.384;2023-02-11T06:34:56;100135.81;;;6.56;66.76
60918;BME280;46792;38.854;-9.384;2023-02-11T06:37:15;100144.91;;;6.55;67.09
60918;BME280;46792;38.854;-9.384;2023-02-11T06:39:16;100145.94;;;6.54;67.04
60918;BME280;46792;38.854;-9.384;2023-02-11T06:41:17;100135.44;;;6.52;67.37
60918;BME280;46792;38.854;-9.384;2023-02-11T06:43:20;100130.06;;;6.52;67.38
60918;BME280;46792;38.854;-9.384;2023-02-11T06:45:21;100143.94;;;6.49;67.57
60918;BME280;46792;38.854;-9.384;2023-02-11T06:47:22;100144.97;;;6.48;67.42
60918;BME280;46792;38.854;-9.384;2023-02-11T06:49:22;100145.56;;;6.50;67.66
60918;BME280;46792;38.854;-9.384;2023-02-11T06:51:23;100147.56;;;6.55;67.25
60918;BME280;46792;38.854;-9.384;2023-02-11T06:53:23;100153.53;;;6.57;66.94
60918;BME280;46792;38.854;-9.384;2023-02-11T06:55:25;100159.88;;;6.63;66.88
60918;BME280;46792;38.854;-9.384;2023-02-11T06:57:25;100151.91;;;6.56;67.06
60918;BME280;46792;38.854;-9.384;2023-02-11T06:59:26;100153.53;;;6.57;67.29
60918;BME280;46792;38.854;-9.384;2023-02-11T07:04:23;100162.78;;;6.61;67.04
60918;BME280;46792;38.854;-9.384;2023-02-11T07:06:25;100161.59;;;6.57;66.94
60918;BME280;46792;38.854;-9.384;2023-02-11T07:08:29;100163.06;;;6.53;67.29
60918;BME280;46792;38.854;-9.384;2023-02-11T07:10:30;100163.97;;;6.47;67.63
60918;BME280;46792;38.854;-9.384;2023-02-11T07:12:31;100177.69;;;6.57;67.33
60918;BME280;46792;38.854;-9.384;2023-02-11T07:14:32;100169.78;;;6.44;67.63
60918;BME280;46792;38.854;-9.384;2023-02-11T07:16:34;100167.28;;;6.42;67.68
60918;BME280;46792;38.854;-9.384;2023-02-11T07:18:34;100169.34;;;6.47;67.45
60918;BME280;46792;38.854;-9.384;2023-02-11T07:20:36;100160.88;;;6.43;67.54
60918;BME280;46792;38.854;-9.384;2023-02-11T07:22:38;100162.31;;;6.46;67.56
60918;BME280;46792;38.854;-9.384;2023-02-11T07:24:38;100167.69;;;6.46;67.24
60918;BME280;46792;38.854;-9.384;2023-02-11T07:26:39;100153.94;;;6.35;67.70
60918;BME280;46792;38.854;-9.384;2023-02-11T07:28:58;100147.72;;;6.42;67.71
60918;BME280;46792;38.854;-9.384;2023-02-11T07:31:04;100158.81;;;6.45;67.34
60918;BME280;46792;38.854;-9.384;2023-02-11T07:33:05;100160.69;;;6.45;67.80
60918;BME280;46792;38.854;-9.384;2023-02-11T07:35:05;100159.84;;;6.44;67.80
60918;BME280;46792;38.854;-9.384;2023-02-11T07:37:06;100160.34;;;6.34;68.16
60918;BME280;46792;38.854;-9.384;2023-02-11T07:39:07;100158.28;;;6.36;68.25
60918;BME280;46792;38.854;-9.384;2023-02-11T07:41:18;100157.09;;;6.32;68.13
60918;BME280;46792;38.854;-9.384;2023-02-11T07:48:19;100155.94;;;6.21;68.75
60918;BME280;46792;38.854;-9.384;2023-02-11T07:50:20;100160.91;;;6.18;68.88
60918;BME280;46792;38.854;-9.384;2023-02-11T07:52:21;100160.91;;;6.18;68.98
60918;BME280;46792;38.854;-9.384;2023-02-11T07:54:21;100161.50;;;6.20;69.23
60918;BME280;46792;38.854;-9.384;2023-02-11T07:56:22;100161.97;;;6.17;69.34
60918;BME280;46792;38.854;-9.384;2023-02-11T07:58:23;100164.19;;;6.20;69.04
60918;BME280;46792;38.854;-9.384;2023-02-11T08:00:23;100161.09;;;6.23;69.02
60918;BME280;46792;38.854;-9.384;2023-02-11T08:02:33;100163.31;;;6.26;69.01
60918;BME280;46792;38.854;-9.384;2023-02-11T08:04:33;100150.16;;;6.24;68.87
60918;BME280;46792;38.854;-9.384;2023-02-11T08:06:34;100160.28;;;6.22;69.01
60918;BME280;46792;38.854;-9.384;2023-02-11T08:08:39;100161.50;;;6.20;69.46
60918;BME280;46792;38.854;-9.384;2023-02-11T08:10:40;100157.03;;;6.14;69.44
60918;BME280;46792;38.854;-9.384;2023-02-11T08:12:40;100155.13;;;6.21;69.61
60918;BME280;46792;38.854;-9.384;2023-02-11T08:14:41;100172.25;;;6.20;69.49
60918;BME280;46792;38.854;-9.384;2023-02-11T08:16:41;100160.47;;;6.21;69.68
60918;BME280;46792;38.854;-9.384;2023-02-11T08:18:42;100173.88;;;6.21;69.57
60918;BME280;46792;38.854;-9.384;2023-02-11T08:21:06;100176.97;;;6.24;69.47
60918;BME280;46792;38.854;-9.384;2023-02-11T08:23:06;100174.22;;;6.31;69.31
60918;BME280;46792;38.854;-9.384;2023-02-11T08:25:07;100172.94;;;6.34;69.36
60918;BME280;46792;38.854;-9.384;2023-02-11T08:27:07;100166.31;;;6.36;69.53
60918;BME280;46792;38.854;-9.384;2023-02-11T08:29:11;100175.88;;;6.32;68.86
60918;BME280;46792;38.854;-9.384;2023-02-11T08:31:23;100166.50;;;6.42;69.20
60918;BME280;46792;38.854;-9.384;2023-02-11T08:33:24;100165.44;;;6.43;69.30
60918;BME280;46792;38.854;-9.384;2023-02-11T08:35:25;100179.75;;;6.55;68.88
60918;BME280;46792;38.854;-9.384;2023-02-11T08:37:25;100173.34;;;6.56;68.95
60918;BME280;46792;38.854;-9.384;2023-02-11T08:39:26;100189.75;;;6.66;68.58
60918;BME280;46792;38.854;-9.384;2023-02-11T08:41:27;100166.38;;;6.74;68.57
60918;BME280;46792;38.854;-9.384;2023-02-11T08:43:27;100163.31;;;6.70;67.86
60918;BME280;46792;38.854;-9.384;2023-02-11T08:45:47;100186.50;;;6.83;68.27
60918;BME280;46792;38.854;-9.384;2023-02-11T08:47:47;100184.41;;;6.85;67.50
60918;BME280;46792;38.854;-9.384;2023-02-11T08:49:48;100182.47;;;6.92;67.54
60918;BME280;46792;38.854;-9.384;2023-02-11T08:51:49;100188.38;;;7.01;67.15
60918;BME280;46792;38.854;-9.384;2023-02-11T08:53:50;100184.41;;;7.04;67.73
60918;BME280;46792;38.854;-9.384;2023-02-11T08:55:53;100190.31;;;7.12;67.13
60918;BME280;46792;38.854;-9.384;2023-02-11T08:57:54;100200.34;;;7.17;67.26
60918;BME280;46792;38.854;-9.384;2023-02-11T08:59:54;100198.78;;;7.28;67.24
60918;BME280;46792;38.854;-9.384;2023-02-11T09:01:55;100200.34;;;7.36;67.12
60918;BME280;46792;38.854;-9.384;2023-02-11T09:03:57;100203.28;;;7.46;66.54
60918;BME280;46792;38.854;-9.384;2023-02-11T09:05:58;100212.25;;;7.58;66.46
60918;BME280;46792;38.854;-9.384;2023-02-11T09:08:18;100223.13;;;7.64;65.50
60918;BME280;46792;38.854;-9.384;2023-02-11T09:10:19;100221.06;;;7.78;65.41
60918;BME280;46792;38.854;-9.384;2023-02-11T09:14:57;100226.50;;;7.89;65.25
60918;BME280;46792;38.854;-9.384;2023-02-11T09:16:58;100227.34;;;8.02;64.96
60918;BME280;46792;38.854;-9.384;2023-02-11T09:19:00;100224.41;;;8.03;65.07
60918;BME280;46792;38.854;-9.384;2023-02-11T09:21:19;100230.88;;;8.14;64.57
60918;BME280;46792;38.854;-9.384;2023-02-11T09:23:20;100235.00;;;8.17;64.22
60918;BME280;46792;38.854;-9.384;2023-02-11T09:25:20;100238.03;;;8.20;64.30
60918;BME280;46792;38.854;-9.384;2023-02-11T09:27:21;100237.78;;;8.22;64.26
60918;BME280;46792;38.854;-9.384;2023-02-11T09:29:21;100234.41;;;8.27;63.68
60918;BME280;46792;38.854;-9.384;2023-02-11T09:31:25;100238.41;;;8.36;63.71
60918;BME280;46792;38.854;-9.384;2023-02-11T09:33:26;100224.00;;;8.30;63.85
60918;BME280;46792;38.854;-9.384;2023-02-11T09:35:44;100241.56;;;8.33;63.46
60918;BME280;46792;38.854;-9.384;2023-02-11T09:37:45;100234.41;;;8.38;63.48
60918;BME280;46792;38.854;-9.384;2023-02-11T09:39:47;100235.94;;;8.34;63.67
60918;BME280;46792;38.854;-9.384;2023-02-11T09:44:03;100253.50;;;8.37;63.62
60918;BME280;46792;38.854;-9.384;2023-02-11T09:46:05;100242.59;;;8.32;63.77
60918;BME280;46792;38.854;-9.384;2023-02-11T09:48:19;100226.59;;;8.37;64.37
60918;BME280;46792;38.854;-9.384;2023-02-11T09:55:44;100243.38;;;8.63;63.13
60918;BME280;46792;38.854;-9.384;2023-02-11T09:57:45;100252.03;;;8.77;63.16
60918;BME280;46792;38.854;-9.384;2023-02-11T09:59:46;100252.25;;;8.87;62.74
60918;BME280;46792;38.854;-9.384;2023-02-11T10:02:12;100254.59;;;8.95;62.52
60918;BME280;46792;38.854;-9.384;2023-02-11T10:07:18;100254.69;;;9.01;61.33
60918;BME280;46792;38.854;-9.384;2023-02-11T10:21:22;100259.28;;;8.52;62.78
60918;BME280;46792;38.854;-9.384;2023-02-11T10:23:33;100259.13;;;8.47;63.58
60918;BME280;46792;38.854;-9.384;2023-02-11T10:25:42;100260.22;;;8.58;62.38
60918;BME280;46792;38.854;-9.384;2023-02-11T10:27:44;100261.13;;;8.52;63.42
60918;BME280;46792;38.854;-9.384;2023-02-11T10:29:48;100254.25;;;8.56;63.52
60918;BME280;46792;38.854;-9.384;2023-02-11T10:31:49;100249.34;;;8.65;63.36
60918;BME280;46792;38.854;-9.384;2023-02-11T10:35:59;100264.09;;;8.74;62.90
60918;BME280;46792;38.854;-9.384;2023-02-11T10:38:00;100252.50;;;8.74;62.35
60918;BME280;46792;38.854;-9.384;2023-02-11T10:40:00;100271.22;;;8.80;62.31
60918;BME280;46792;38.854;-9.384;2023-02-11T10:42:05;100270.63;;;8.78;63.06
60918;BME280;46792;38.854;-9.384;2023-02-11T10:44:18;100261.28;;;8.81;63.70
60918;BME280;46792;38.854;-9.384;2023-02-11T10:46:23;100270.63;;;8.78;63.89
60918;BME280;46792;38.854;-9.384;2023-02-11T10:48:48;100271.94;;;8.88;64.03
60918;BME280;46792;38.854;-9.384;2023-02-11T10:51:06;100261.50;;;9.03;63.25
60918;BME280;46792;38.854;-9.384;2023-02-11T10:53:15;100271.69;;;9.01;63.21
60918;BME280;46792;38.854;-9.384;2023-02-11T10:55:21;100277.19;;;9.06;62.75
60918;BME280;46792;38.854;-9.384;2023-02-11T10:57:27;100270.50;;;9.09;62.73
60918;BME280;46792;38.854;-9.384;2023-02-11T10:59:32;100276.13;;;9.07;63.16
60918;BME280;46792;38.854;-9.384;2023-02-11T11:01:47;100268.50;;;9.16;62.85
60918;BME280;46792;38.854;-9.384;2023-02-11T11:03:50;100270.97;;;9.30;62.04
60918;BME280;46792;38.854;-9.384;2023-02-11T11:09:28;100273.53;;;9.36;62.33
60918;BME280;46792;38.854;-9.384;2023-02-11T11:11:32;100274.44;;;9.42;61.96
60918;BME280;46792;38.854;-9.384;2023-02-11T11:16:24;100269.72;;;9.49;61.47
60918;BME280;46792;38.854;-9.384;2023-02-11T11:18:25;100268.38;;;9.64;61.84
60918;BME280;46792;38.854;-9.384;2023-02-11T11:20:28;100279.59;;;9.72;61.78
60918;BME280;46792;38.854;-9.384;2023-02-11T11:22:31;100267.97;;;9.84;61.62
60918;BME280;46792;38.854;-9.384;2023-02-11T11:24:38;100277.25;;;10.05;61.10
60918;BME280;46792;38.854;-9.384;2023-02-11T11:26:47;100283.72;;;10.21;61.42
60918;BME280;46792;38.854;-9.384;2023-02-11T11:30:54;100282.47;;;10.41;60.30
60918;BME280;46792;38.854;-9.384;2023-02-11T11:32:59;100273.66;;;10.62;60.11
60918;BME280;46792;38.854;-9.384;2023-02-11T11:35:16;100278.56;;;10.65;59.70
60918;BME280;46792;38.854;-9.384;2023-02-11T11:37:38;100269.03;;;10.97;59.09
60918;BME280;46792;38.854;-9.384;2023-02-11T11:39:39;100277.53;;;11.06;59.74
60918;BME280;46792;38.854;-9.384;2023-02-11T11:41:49;100270.00;;;11.30;58.51
60918;BME280;46792;38.854;-9.384;2023-02-11T11:46:04;100257.53;;;11.74;56.34
60918;BME280;46792;38.854;-9.384;2023-02-11T11:48:38;100264.94;;;11.83;55.84
60918;BME280;46792;38.854;-9.384;2023-02-11T11:50:43;100255.97;;;11.78;54.93
60918;BME280;46792;38.854;-9.384;2023-02-11T11:53:10;100268.19;;;11.58;55.13
60918;BME280;46792;38.854;-9.384;2023-02-11T11:55:18;100269.50;;;11.55;55.61
60918;BME280;46792;38.854;-9.384;2023-02-11T11:57:38;100265.38;;;11.48;55.78
60918;BME280;46792;38.854;-9.384;2023-02-11T11:59:39;100269.75;;;11.32;56.29
60918;BME280;46792;38.854;-9.384;2023-02-11T12:08:47;100262.94;;;11.07;57.95
60918;BME280;46792;38.854;-9.384;2023-02-11T12:11:01;100262.94;;;11.07;58.14
60918;BME280;46792;38.854;-9.384;2023-02-11T12:28:14;100245.47;;;11.59;58.19
60918;BME280;46792;38.854;-9.384;2023-02-11T12:32:41;100237.78;;;11.73;57.20
60918;BME280;46792;38.854;-9.384;2023-02-11T12:40:39;100215.97;;;12.07;56.78
60918;BME280;46792;38.854;-9.384;2023-02-11T12:42:46;100227.94;;;12.16;57.81
60918;BME280;46792;38.854;-9.384;2023-02-11T12:45:19;100215.09;;;12.34;57.14
60918;BME280;46792;38.854;-9.384;2023-02-11T12:47:31;100215.16;;;12.44;56.73